createdAt,value
2023-05-09T00:01:24.704Z,71.97
2023-05-09T00:03:52.366Z,71.80
2023-05-09T00:06:19.886Z,72.90
2023-05-09T00:08:46.545Z,68.45
2023-05-09T00:11:13.183Z,65.78
2023-05-09T00:13:40.090Z,64.13
2023-05-09T00:16:07.135Z,59.00
2023-05-09T00:18:34.126Z,60.55
2023-05-09T00:21:04.057Z,58.97
2023-05-09T00:23:30.937Z,55.45
2023-05-09T00:25:58.130Z,52.97
2023-05-09T00:28:24.786Z,59.03
2023-05-09T00:30:51.322Z,60.65
2023-05-09T00:33:19.390Z,55.45
2023-05-09T00:35:46.408Z,62.20
2023-05-09T00:38:13.549Z,57.03
2023-05-09T00:40:40.346Z,59.38
2023-05-09T00:43:07.019Z,63.65
2023-05-09T00:45:34.002Z,58.38
2023-05-09T00:48:00.707Z,57.92
2023-05-09T00:50:27.490Z,59.53
2023-05-09T00:52:54.155Z,55.88
2023-05-09T00:55:21.510Z,55.90
2023-05-09T00:57:48.035Z,61.67
2023-05-09T01:00:14.993Z,57.83
2023-05-09T01:02:43.920Z,64.50
2023-05-09T01:05:12.106Z,59.53
2023-05-09T01:07:47.730Z,61.22
2023-05-09T01:10:35.237Z,52.38
2023-05-09T01:13:09.184Z,54.65
2023-05-09T01:16:17.839Z,52.13
2023-05-09T01:18:52.018Z,60.72
2023-05-09T01:21:24.154Z,62.22
2023-05-09T01:24:09.612Z,62.53
2023-05-09T01:26:36.180Z,57.47
2023-05-09T01:29:21.532Z,63.80
2023-05-09T01:31:49.322Z,62.92
2023-05-09T01:34:18.121Z,58.50
2023-05-09T01:36:47.445Z,52.17
2023-05-09T01:39:14.978Z,56.63
2023-05-09T01:41:41.583Z,62.78
2023-05-09T01:44:11.559Z,58.65
2023-05-09T01:46:39.455Z,61.15
2023-05-09T01:49:09.099Z,53.45
2023-05-09T01:51:37.553Z,59.58
2023-05-09T01:54:06.073Z,55.72
2023-05-09T01:56:33.375Z,55.10
2023-05-09T01:59:02.273Z,60.55
2023-05-09T02:01:30.441Z,55.85
2023-05-09T02:03:57.494Z,59.00
2023-05-09T02:06:24.795Z,52.88
2023-05-09T02:08:51.828Z,51.67
2023-05-09T02:11:18.620Z,51.20
2023-05-09T02:13:45.491Z,54.30
2023-05-09T02:16:12.566Z,49.95
2023-05-09T02:18:39.241Z,49.92
2023-05-09T02:21:06.476Z,52.17
2023-05-09T02:23:33.323Z,56.75
2023-05-09T02:26:00.533Z,56.13
2023-05-09T02:28:28.453Z,54.47
2023-05-09T02:30:57.210Z,52.17
2023-05-09T02:33:24.458Z,56.53
2023-05-09T02:35:51.971Z,62.05
2023-05-09T02:38:19.333Z,63.08
2023-05-09T02:40:47.638Z,53.63
2023-05-09T02:43:15.324Z,53.60
2023-05-09T02:45:42.296Z,52.30
2023-05-09T02:48:09.463Z,53.72
2023-05-09T02:50:38.310Z,55.45
2023-05-09T02:53:05.625Z,46.92
2023-05-09T02:55:32.202Z,61.35
2023-05-09T02:58:12.112Z,56.42
2023-05-09T03:00:40.108Z,50.65
2023-05-09T03:03:06.938Z,56.83
2023-05-09T03:05:33.624Z,55.33
2023-05-09T03:08:00.360Z,59.95
2023-05-09T03:10:26.996Z,55.38
2023-05-09T03:12:53.610Z,62.75
2023-05-09T03:15:21.168Z,61.95
2023-05-09T03:17:48.007Z,71.88
2023-05-09T03:20:15.853Z,66.55
2023-05-09T03:22:42.819Z,64.20
2023-05-09T03:25:09.635Z,59.22
2023-05-09T03:27:36.235Z,66.75
2023-05-09T03:30:02.917Z,69.88
2023-05-09T03:32:29.881Z,59.55
2023-05-09T03:34:57.259Z,69.30
2023-05-09T03:37:26.220Z,73.97
2023-05-09T03:39:53.903Z,86.77
2023-05-09T03:42:20.509Z,77.93
2023-05-09T03:44:47.544Z,77.85
2023-05-09T03:47:14.168Z,84.40
2023-05-09T03:49:41.554Z,79.28
2023-05-09T03:52:08.198Z,70.25
2023-05-09T03:54:34.947Z,74.38
2023-05-09T03:57:01.619Z,81.68
2023-05-09T03:59:28.201Z,71.63
2023-05-09T04:01:55.021Z,95.53
2023-05-09T04:04:21.858Z,93.55
2023-05-09T04:06:48.608Z,97.82
2023-05-09T04:09:15.591Z,101.05
2023-05-09T04:11:42.213Z,97.25
2023-05-09T04:14:08.916Z,97.60
2023-05-09T04:32:28.623Z,80.22
2023-05-09T04:34:55.267Z,92.03
2023-05-09T04:37:22.036Z,91.07
2023-05-09T04:39:48.888Z,97.05
2023-05-09T04:42:15.700Z,84.57
2023-05-09T04:44:42.388Z,84.85
2023-05-09T04:47:09.324Z,76.07
2023-05-09T04:49:35.885Z,86.88
2023-05-09T04:52:02.568Z,77.50
2023-05-09T04:54:29.403Z,78.75
2023-05-09T04:57:03.219Z,80.20
2023-05-09T05:02:03.751Z,75.07
2023-05-09T05:04:30.588Z,75.80
2023-05-09T05:06:57.409Z,72.57
2023-05-09T05:09:24.338Z,78.97
2023-05-09T05:11:59.967Z,69.35
2023-05-09T05:14:27.783Z,71.45
2023-05-09T05:16:54.572Z,77.95
2023-05-09T05:19:21.160Z,82.68
2023-05-09T05:21:47.843Z,81.45
2023-05-09T05:24:14.413Z,81.13
2023-05-09T05:26:40.989Z,67.75
2023-05-09T05:29:07.831Z,70.28
2023-05-09T05:31:34.446Z,71.00
2023-05-09T05:34:01.041Z,70.80
2023-05-09T05:36:27.805Z,71.95
2023-05-09T05:38:54.412Z,65.15
2023-05-09T05:41:21.238Z,67.57
2023-05-09T05:43:47.970Z,74.55
2023-05-09T05:46:14.586Z,68.75
2023-05-09T05:48:41.220Z,75.60
2023-05-09T05:51:08.058Z,75.07
2023-05-09T05:53:34.971Z,69.65
2023-05-09T05:56:02.066Z,74.47
2023-05-09T05:58:28.719Z,70.78
2023-05-09T06:00:55.404Z,80.90
2023-05-09T06:03:22.078Z,76.38
2023-05-09T06:05:49.209Z,69.47
2023-05-09T06:08:15.914Z,51.88
2023-05-09T06:10:42.542Z,47.20
2023-05-09T06:13:09.344Z,41.95
2023-05-09T06:15:35.954Z,37.75
2023-05-09T06:18:02.688Z,33.72
2023-05-09T06:20:29.434Z,35.97
2023-05-09T06:22:55.997Z,34.80
2023-05-09T06:25:22.668Z,36.92
2023-05-09T06:27:49.339Z,35.55
2023-05-09T06:30:25.763Z,35.55
2023-05-09T06:32:54.050Z,35.55
2023-05-09T06:35:20.898Z,34.97
2023-05-09T06:37:48.874Z,34.40
2023-05-09T06:40:16.585Z,42.47
2023-05-09T06:42:43.378Z,38.17
2023-05-09T06:45:10.717Z,40.42
2023-05-09T06:47:37.650Z,41.17
2023-05-09T06:50:04.499Z,41.28
2023-05-09T06:52:31.216Z,44.78
2023-05-09T06:54:58.022Z,43.70
2023-05-09T06:57:24.746Z,51.97
2023-05-09T06:59:51.324Z,47.28
2023-05-09T07:02:18.181Z,47.47
2023-05-09T07:04:44.847Z,47.00
2023-05-09T07:07:11.610Z,46.35
2023-05-09T07:09:38.616Z,54.42
2023-05-09T07:12:05.622Z,54.67
2023-05-09T07:14:32.251Z,50.70
2023-05-09T07:17:10.301Z,49.70
2023-05-09T07:19:45.308Z,51.95
2023-05-09T07:22:13.641Z,54.63
2023-05-09T07:24:40.310Z,55.00
2023-05-09T07:27:06.991Z,52.85
2023-05-09T07:29:33.874Z,55.47
2023-05-09T07:32:00.710Z,50.90
2023-05-09T07:34:27.599Z,50.90
2023-05-09T07:36:54.476Z,52.00
2023-05-09T07:39:21.154Z,48.03
2023-05-09T07:41:48.768Z,55.45
2023-05-09T07:44:16.033Z,54.17
2023-05-09T07:46:42.945Z,53.13
2023-05-09T07:49:09.762Z,52.65
2023-05-09T07:51:36.814Z,55.65
2023-05-09T07:54:03.743Z,52.00
2023-05-09T07:56:30.536Z,53.80
2023-05-09T07:58:57.391Z,51.25
2023-05-09T08:01:24.086Z,53.63
2023-05-09T08:03:50.913Z,51.50
2023-05-09T08:06:17.860Z,53.45
2023-05-09T08:08:44.504Z,51.10
2023-05-09T08:11:11.102Z,51.38
2023-05-09T08:13:37.932Z,53.50
2023-05-09T08:16:04.980Z,52.83
2023-05-09T08:18:31.703Z,51.03
2023-05-09T08:20:59.847Z,49.83
2023-05-09T08:23:26.990Z,51.78
2023-05-09T08:25:54.729Z,47.85
2023-05-09T08:28:24.387Z,50.95
2023-05-09T08:30:52.359Z,53.53
2023-05-09T08:33:19.234Z,51.60
2023-05-09T08:35:46.268Z,52.55
2023-05-09T08:38:12.905Z,50.15
2023-05-09T08:40:41.276Z,47.50
2023-05-09T08:43:08.930Z,50.92
2023-05-09T08:45:46.397Z,47.00
2023-05-09T08:48:15.954Z,48.97
2023-05-09T08:50:43.728Z,50.03
2023-05-09T08:53:11.900Z,45.47
2023-05-09T08:55:39.166Z,46.63
2023-05-09T08:58:06.424Z,45.65
2023-05-09T09:00:33.887Z,44.13
2023-05-09T09:03:04.107Z,49.88
2023-05-09T09:05:41.169Z,45.88
2023-05-09T09:08:09.453Z,43.42
2023-05-09T09:10:41.517Z,40.28
2023-05-09T09:13:10.101Z,50.50
2023-05-09T09:15:38.621Z,43.80
2023-05-09T09:18:11.653Z,40.75
2023-05-09T09:20:45.171Z,40.85
2023-05-09T09:23:13.003Z,41.40
2023-05-09T09:25:39.644Z,39.85
2023-05-09T09:28:06.518Z,42.03
2023-05-09T09:30:33.268Z,42.95
2023-05-09T09:33:00.718Z,40.20
2023-05-09T09:35:27.596Z,44.30
2023-05-09T09:38:00.186Z,39.47
2023-05-09T09:40:27.124Z,41.28
2023-05-09T09:42:53.969Z,42.17
2023-05-09T09:45:20.871Z,38.45
2023-05-09T09:47:50.059Z,36.88
2023-05-09T09:50:23.387Z,39.28
2023-05-09T09:52:51.611Z,38.20
2023-05-09T09:55:19.238Z,35.90
2023-05-09T09:57:48.142Z,34.78
2023-05-09T10:00:17.321Z,34.80
2023-05-09T10:02:52.458Z,34.35
2023-05-09T10:05:24.438Z,34.58
2023-05-09T10:08:03.233Z,32.75
2023-05-09T10:10:34.788Z,33.63
2023-05-09T10:13:10.770Z,31.95
2023-05-09T10:15:52.172Z,31.02
2023-05-09T10:18:25.261Z,31.02
2023-05-09T10:20:53.346Z,31.92
2023-05-09T10:23:20.916Z,30.60
2023-05-09T10:25:52.567Z,34.05
2023-05-09T10:28:27.951Z,33.45
2023-05-09T10:30:59.673Z,30.15
2023-05-09T10:33:41.918Z,32.97
2023-05-09T10:36:09.247Z,31.67
2023-05-09T10:38:37.283Z,29.23
2023-05-09T10:41:05.245Z,33.00
2023-05-09T10:43:34.742Z,31.20
2023-05-09T10:46:04.614Z,27.17
2023-05-09T10:48:34.541Z,29.95
2023-05-09T10:51:02.391Z,29.17
2023-05-09T10:53:56.229Z,28.02
2023-05-09T10:56:27.483Z,32.75
2023-05-09T10:58:54.724Z,30.15
2023-05-09T11:01:32.958Z,29.48
2023-05-09T11:04:00.278Z,29.15
2023-05-09T11:06:44.089Z,28.70
2023-05-09T11:09:34.233Z,29.52
2023-05-09T11:12:10.101Z,27.60
2023-05-09T11:14:44.949Z,29.52
2023-05-09T11:17:28.385Z,27.73
2023-05-09T11:20:05.649Z,26.63
2023-05-09T11:22:43.165Z,25.60
2023-05-09T11:25:12.703Z,25.00
2023-05-09T11:27:48.651Z,28.13
2023-05-09T11:30:17.721Z,28.15
2023-05-09T11:32:51.837Z,27.48
2023-05-09T11:35:21.017Z,26.92
2023-05-09T11:38:04.952Z,26.52
2023-05-09T11:40:33.984Z,26.70
2023-05-09T11:43:01.569Z,26.92
2023-05-09T11:45:33.202Z,27.42
2023-05-09T11:48:01.165Z,26.42
2023-05-09T11:50:28.677Z,26.40
2023-05-09T11:52:55.353Z,25.48
2023-05-09T11:55:22.876Z,24.38
2023-05-09T11:57:51.900Z,24.83
2023-05-09T12:00:22.851Z,23.00
2023-05-09T12:02:51.210Z,22.20
2023-05-09T12:05:20.002Z,22.40
2023-05-09T12:07:47.517Z,21.10
2023-05-09T12:10:21.583Z,19.05
2023-05-09T12:12:50.672Z,21.73
2023-05-09T12:15:18.139Z,19.25
2023-05-09T12:17:47.255Z,22.25
2023-05-09T12:20:15.142Z,19.95
2023-05-09T12:22:45.245Z,20.55
2023-05-09T12:25:12.470Z,18.10
2023-05-09T12:27:42.605Z,19.75
2023-05-09T12:30:14.182Z,18.83
2023-05-09T12:32:41.911Z,19.60
2023-05-09T12:35:10.976Z,18.98
2023-05-09T12:37:37.988Z,18.33
2023-05-09T12:40:06.314Z,19.05
2023-05-09T12:42:34.870Z,20.73
2023-05-09T12:45:03.172Z,18.48
2023-05-09T12:47:31.951Z,18.70
2023-05-09T12:50:03.761Z,20.15
2023-05-09T12:53:01.426Z,18.55
2023-05-09T12:55:31.205Z,19.33
2023-05-09T12:58:03.536Z,19.77
2023-05-09T13:00:44.146Z,18.55
2023-05-09T13:06:02.026Z,20.05
2023-05-09T13:08:29.431Z,19.70
2023-05-09T13:11:04.462Z,21.02
2023-05-09T13:13:35.298Z,18.88
2023-05-09T13:16:04.301Z,19.52
2023-05-09T13:18:30.875Z,20.48
2023-05-09T13:20:57.576Z,20.58
2023-05-09T13:23:24.155Z,21.15
2023-05-09T13:25:51.602Z,23.55
2023-05-09T13:28:18.871Z,23.02
2023-05-09T13:30:45.879Z,24.70
2023-05-09T13:33:24.474Z,22.55
2023-05-09T13:35:51.991Z,23.25
2023-05-09T13:38:18.705Z,24.15
2023-05-09T13:40:45.294Z,23.85
2023-05-09T13:43:12.324Z,26.90
2023-05-09T13:45:39.532Z,24.65
2023-05-09T13:48:06.453Z,24.80
2023-05-09T13:50:35.360Z,26.00
2023-05-09T13:53:01.982Z,25.67
2023-05-09T13:55:29.647Z,25.92
2023-05-09T13:57:56.725Z,26.75
2023-05-09T14:00:26.519Z,27.08
2023-05-09T14:02:53.315Z,28.08
2023-05-09T14:05:20.133Z,28.63
2023-05-09T14:07:47.479Z,29.13
2023-05-09T14:10:14.331Z,29.27
2023-05-09T14:12:44.273Z,28.63
2023-05-09T14:15:11.332Z,28.13
2023-05-09T14:17:38.157Z,27.55
2023-05-09T14:20:05.599Z,27.83
2023-05-09T14:22:32.672Z,29.45
2023-05-09T14:24:59.224Z,25.67
2023-05-09T14:27:26.306Z,27.73
2023-05-09T14:29:53.246Z,29.15
2023-05-09T14:32:19.910Z,28.80
2023-05-09T14:34:49.608Z,27.50
2023-05-09T14:37:16.436Z,26.58
2023-05-09T14:39:45.168Z,27.73
2023-05-09T14:42:14.254Z,28.02
2023-05-09T14:44:41.958Z,27.50
2023-05-09T14:47:09.861Z,25.67
2023-05-09T14:49:37.988Z,26.98
2023-05-09T14:52:04.798Z,26.60
2023-05-09T14:54:31.665Z,24.20
2023-05-09T14:56:59.678Z,27.98
2023-05-09T14:59:26.327Z,24.45
2023-05-09T15:01:52.999Z,23.38
2023-05-09T15:04:19.723Z,22.85
2023-05-09T15:06:46.356Z,24.13
2023-05-09T15:09:13.107Z,23.98
2023-05-09T15:11:47.587Z,21.95
2023-05-09T15:14:15.368Z,24.15
2023-05-09T15:16:42.468Z,20.73
2023-05-09T15:19:09.085Z,23.23
2023-05-09T15:21:35.961Z,20.67
2023-05-09T15:24:03.573Z,20.13
2023-05-09T15:26:30.291Z,20.20
2023-05-09T15:28:56.910Z,20.13
2023-05-09T15:31:25.025Z,21.15
2023-05-09T15:33:51.900Z,20.55
2023-05-09T15:36:18.564Z,19.20
2023-05-09T15:38:49.816Z,19.52
2023-05-09T15:41:16.875Z,21.65
2023-05-09T15:43:43.660Z,19.95
2023-05-09T15:46:10.668Z,18.20
2023-05-09T15:48:37.284Z,17.95
2023-05-09T15:51:04.212Z,16.10
2023-05-09T15:53:32.130Z,15.90
2023-05-09T15:55:58.856Z,16.30
2023-05-09T15:58:25.536Z,16.25
2023-05-09T16:00:52.458Z,15.23
2023-05-09T16:03:19.426Z,16.75
2023-05-09T16:05:46.332Z,16.98
2023-05-09T16:08:13.136Z,14.18
2023-05-09T16:10:40.507Z,14.68
2023-05-09T16:13:07.884Z,11.60
2023-05-09T16:15:35.338Z,11.95
2023-05-09T16:18:02.115Z,13.30
2023-05-09T16:20:28.857Z,9.48
2023-05-09T16:22:55.922Z,13.15
2023-05-09T16:25:22.768Z,11.15
2023-05-09T16:27:49.425Z,11.57
2023-05-09T16:30:16.833Z,10.40
2023-05-09T16:32:43.752Z,12.10
2023-05-09T16:35:10.570Z,10.85
2023-05-09T16:37:37.576Z,11.93
2023-05-09T16:40:04.878Z,10.63
2023-05-09T16:42:31.728Z,10.75
2023-05-09T16:44:58.549Z,12.90
2023-05-09T16:47:25.205Z,11.68
2023-05-09T16:49:51.832Z,12.55
2023-05-09T16:52:18.643Z,12.25
2023-05-09T16:54:45.373Z,14.43
2023-05-09T16:57:13.295Z,13.90
2023-05-09T16:59:40.378Z,13.82
2023-05-09T17:02:08.539Z,12.82
2023-05-09T17:04:37.489Z,14.20
2023-05-09T17:07:05.021Z,13.35
2023-05-09T17:09:32.281Z,14.00
2023-05-09T17:11:59.047Z,13.82
2023-05-09T17:14:26.939Z,14.88
2023-05-09T17:16:53.996Z,13.82
2023-05-09T17:19:23.376Z,14.80
2023-05-09T17:21:50.222Z,13.48
2023-05-09T17:24:17.389Z,13.60
2023-05-09T17:26:44.135Z,13.00
2023-05-09T17:29:10.935Z,14.40
2023-05-09T17:31:37.778Z,11.80
2023-05-09T17:34:05.534Z,12.18
2023-05-09T17:36:33.713Z,14.73
2023-05-09T17:39:00.904Z,13.60
2023-05-09T17:41:27.719Z,11.93
2023-05-09T17:43:57.339Z,12.05
2023-05-09T17:46:24.566Z,12.37
2023-05-09T17:48:51.361Z,11.95
2023-05-09T17:51:18.288Z,12.85
2023-05-09T17:53:44.960Z,12.02
2023-05-09T17:56:11.675Z,13.30
2023-05-09T17:58:38.509Z,13.60
2023-05-09T18:01:05.739Z,15.35
2023-05-09T18:03:33.003Z,13.43
2023-05-09T18:06:02.841Z,13.65
2023-05-09T18:09:45.974Z,12.85
2023-05-09T18:12:12.748Z,13.60
2023-05-09T18:14:39.685Z,15.32
2023-05-09T18:17:06.440Z,14.30
2023-05-09T18:19:33.908Z,13.57
2023-05-09T18:22:00.512Z,13.95
2023-05-09T18:24:27.336Z,14.13
2023-05-09T18:26:54.093Z,13.68
2023-05-09T18:29:20.709Z,14.10
2023-05-09T18:31:47.410Z,13.73
2023-05-09T18:34:14.070Z,14.43
2023-05-09T18:36:40.593Z,13.98
2023-05-09T18:39:08.866Z,14.18
2023-05-09T18:41:35.611Z,15.02
2023-05-09T18:44:02.230Z,14.60
2023-05-09T18:46:31.757Z,15.02
2023-05-09T18:48:58.992Z,15.38
2023-05-09T18:51:26.278Z,18.00
2023-05-09T18:53:53.510Z,14.57
2023-05-09T18:56:23.175Z,15.00
2023-05-09T18:58:50.263Z,15.23
2023-05-09T19:01:18.376Z,15.60
2023-05-09T19:03:46.238Z,16.08
2023-05-09T19:06:14.090Z,15.60
2023-05-09T19:08:42.511Z,15.95
2023-05-09T19:11:09.971Z,16.13
2023-05-09T19:13:38.476Z,16.40
2023-05-09T19:16:07.086Z,14.75
2023-05-09T19:18:34.720Z,15.90
2023-05-09T19:21:02.279Z,15.52
2023-05-09T19:23:29.917Z,16.20
2023-05-09T19:25:56.752Z,15.05
2023-05-09T19:28:23.497Z,15.20
2023-05-09T19:30:50.528Z,15.40
2023-05-09T19:33:17.820Z,16.00
2023-05-09T19:35:44.592Z,14.90
2023-05-09T19:38:12.072Z,17.02
2023-05-09T19:40:41.784Z,15.13
2023-05-09T19:43:08.406Z,15.13
2023-05-09T19:45:35.105Z,16.33
2023-05-09T19:48:02.158Z,15.27
2023-05-09T19:50:28.877Z,15.00
2023-05-09T19:52:55.641Z,14.00
2023-05-09T19:55:23.082Z,15.15
2023-05-09T19:57:49.645Z,13.73
2023-05-09T20:00:17.144Z,14.85
2023-05-09T20:02:44.158Z,15.05
2023-05-09T20:05:10.818Z,14.30
2023-05-09T20:07:37.604Z,14.45
2023-05-09T20:10:04.515Z,14.77
2023-05-09T20:12:31.387Z,14.85
2023-05-09T20:14:58.151Z,15.20
2023-05-09T20:17:25.064Z,15.23
2023-05-09T20:19:51.713Z,14.90
2023-05-09T20:22:18.449Z,14.70
2023-05-09T20:24:45.235Z,16.10
2023-05-09T20:27:12.870Z,15.50
2023-05-09T20:29:39.695Z,15.00
2023-05-09T20:32:06.727Z,15.52
2023-05-09T20:34:33.377Z,17.00
2023-05-09T20:37:00.131Z,16.38
2023-05-09T20:39:26.927Z,15.10
2023-05-09T20:41:55.547Z,16.08
2023-05-09T20:44:22.299Z,16.13
2023-05-09T20:46:49.204Z,17.15
2023-05-09T20:49:16.001Z,16.55
2023-05-09T20:51:42.767Z,16.90
2023-05-09T20:54:09.434Z,16.70
2023-05-09T20:56:36.103Z,16.52
2023-05-09T20:59:04.314Z,17.08
2023-05-09T21:01:32.473Z,17.02
2023-05-09T21:03:59.390Z,16.80
2023-05-09T21:06:26.173Z,16.27
2023-05-09T21:08:52.841Z,18.17
2023-05-09T21:11:19.456Z,17.67
2023-05-09T21:13:46.114Z,17.20
2023-05-09T21:16:12.759Z,17.35
2023-05-09T21:18:39.369Z,18.45
2023-05-09T21:21:08.317Z,17.33
2023-05-09T21:23:35.007Z,17.05
2023-05-09T21:26:02.475Z,17.58
2023-05-09T21:28:29.573Z,17.77
2023-05-09T21:30:56.359Z,17.58
2023-05-09T21:33:23.184Z,17.63
2023-05-09T21:35:49.927Z,18.27
2023-05-09T21:38:16.775Z,18.25
2023-05-09T21:40:43.350Z,18.80
2023-05-09T21:43:10.180Z,17.50
2023-05-09T21:45:36.857Z,18.27
2023-05-09T21:48:03.690Z,17.77
2023-05-09T21:50:30.520Z,18.52
2023-05-09T21:52:57.317Z,19.33
2023-05-09T21:55:23.986Z,17.90
2023-05-09T21:57:50.708Z,18.40
2023-05-09T22:00:20.990Z,19.58
2023-05-09T22:02:47.871Z,18.70
2023-05-09T22:05:14.631Z,18.40
2023-05-09T22:07:41.249Z,19.40
2023-05-09T22:10:08.413Z,18.10
2023-05-09T22:12:35.053Z,17.77
2023-05-09T22:15:01.988Z,19.77
2023-05-09T22:17:28.639Z,19.70
2023-05-09T22:19:55.345Z,19.40
2023-05-09T22:22:22.020Z,17.60
2023-05-09T22:24:49.768Z,17.95
2023-05-09T22:27:16.416Z,18.85
2023-05-09T22:29:43.068Z,17.98
2023-05-09T22:32:09.758Z,18.67
2023-05-09T22:34:36.585Z,17.70
2023-05-09T22:37:03.637Z,18.77
2023-05-09T22:39:30.910Z,18.30
2023-05-09T22:41:57.608Z,19.75
2023-05-09T22:44:24.314Z,18.95
2023-05-09T22:46:50.920Z,19.05
2023-05-09T22:49:17.751Z,20.02
2023-05-09T22:51:44.348Z,18.90
2023-05-09T22:54:11.003Z,19.42
2023-05-09T22:56:37.594Z,18.85
2023-05-09T22:59:04.620Z,18.80
2023-05-09T23:01:31.461Z,19.25
2023-05-09T23:03:58.192Z,20.40
2023-05-09T23:06:24.887Z,19.42
2023-05-09T23:08:51.428Z,18.75
2023-05-09T23:11:18.166Z,20.10
2023-05-09T23:13:44.852Z,18.65
2023-05-09T23:16:11.526Z,17.52
2023-05-09T23:18:38.350Z,18.05
2023-05-09T23:21:05.016Z,17.77
2023-05-09T23:23:31.660Z,18.35
2023-05-09T23:25:58.524Z,18.42
2023-05-09T23:28:25.391Z,18.90
2023-05-09T23:30:53.621Z,19.80
2023-05-09T23:33:20.701Z,19.35
2023-05-09T23:35:48.162Z,19.80
2023-05-09T23:38:14.817Z,19.30
2023-05-09T23:40:44.850Z,18.45
2023-05-09T23:43:12.668Z,19.23
2023-05-09T23:45:39.300Z,19.27
2023-05-09T23:48:06.012Z,17.45
2023-05-09T23:50:32.723Z,18.00
2023-05-09T23:52:59.298Z,17.05
2023-05-09T23:55:25.870Z,17.77
2023-05-09T23:57:52.577Z,17.52
